sensor_id;sensor_type;location;lat;lon;timestamp;pressure;altitude;pressure_sealevel;temperature;humidity
38880;BME280;25887;30.194;-97.880;2023-04-21T00:01:24;97906.84;;;28.50;57.97
38880;BME280;25887;30.194;-97.880;2023-04-21T00:03:50;97923.53;;;28.50;57.95
38880;BME280;25887;30.194;-97.880;2023-04-21T00:06:16;97953.56;;;28.49;58.14
38880;BME280;25887;30.194;-97.880;2023-04-21T00:08:50;97967.63;;;28.50;57.93
38880;BME280;25887;30.194;-97.880;2023-04-21T00:11:16;97986.25;;;28.48;58.14
38880;BME280;25887;30.194;-97.880;2023-04-21T00:13:42;97975.56;;;28.50;57.85
38880;BME280;25887;30.194;-97.880;2023-04-21T00:16:09;97969.53;;;28.48;57.74
38880;BME280;25887;30.194;-97.880;2023-04-21T00:18:35;97975.69;;;28.48;57.57
38880;BME280;25887;30.194;-97.880;2023-04-21T00:21:02;97978.31;;;28.48;57.76
38880;BME280;25887;30.194;-97.880;2023-04-21T00:23:28;97976.53;;;28.49;57.77
38880;BME280;25887;30.194;-97.880;2023-04-21T00:25:54;97974.72;;;28.49;57.89
38880;BME280;25887;30.194;-97.880;2023-04-21T00:28:22;97956.22;;;28.49;57.40
38880;BME280;25887;30.194;-97.880;2023-04-21T00:30:48;97949.25;;;28.48;57.59
38880;BME280;25887;30.194;-97.880;2023-04-21T00:33:14;97948.50;;;28.46;57.68
38880;BME280;25887;30.194;-97.880;2023-04-21T00:35:40;97945.03;;;28.46;57.35
38880;BME280;25887;30.194;-97.880;2023-04-21T00:38:07;97933.63;;;28.45;57.68
38880;BME280;25887;30.194;-97.880;2023-04-21T00:40:33;97943.63;;;28.42;57.47
38880;BME280;25887;30.194;-97.880;2023-04-21T00:42:59;97948.91;;;28.42;57.60
38880;BME280;25887;30.194;-97.880;2023-04-21T00:45:25;97912.97;;;28.39;57.35
38880;BME280;25887;30.194;-97.880;2023-04-21T00:47:51;97896.41;;;28.37;57.54
38880;BME280;25887;30.194;-97.880;2023-04-21T00:50:18;97907.09;;;28.36;57.34
38880;BME280;25887;30.194;-97.880;2023-04-21T00:52:44;97925.59;;;28.36;57.39
38880;BME280;25887;30.194;-97.880;2023-04-21T00:55:11;97934.38;;;28.36;57.67
38880;BME280;25887;30.194;-97.880;2023-04-21T00:57:39;97936.28;;;28.34;57.48
38880;BME280;25887;30.194;-97.880;2023-04-21T01:00:06;97951.31;;;28.34;57.35
38880;BME280;25887;30.194;-97.880;2023-04-21T01:02:35;97944.44;;;28.31;57.49
38880;BME280;25887;30.194;-97.880;2023-04-21T01:05:06;97935.91;;;28.27;57.82
38880;BME280;25887;30.194;-97.880;2023-04-21T01:07:36;97955.50;;;28.25;57.67
38880;BME280;25887;30.194;-97.880;2023-04-21T01:10:03;97977.56;;;28.24;57.51
38880;BME280;25887;30.194;-97.880;2023-04-21T01:12:29;97994.50;;;28.21;57.59
38880;BME280;25887;30.194;-97.880;2023-04-21T01:14:56;98017.31;;;28.22;57.21
38880;BME280;25887;30.194;-97.880;2023-04-21T01:17:22;98043.97;;;28.19;57.37
38880;BME280;25887;30.194;-97.880;2023-04-21T01:19:51;98069.56;;;28.19;57.65
38880;BME280;25887;30.194;-97.880;2023-04-21T01:22:18;98094.50;;;28.15;57.03
38880;BME280;25887;30.194;-97.880;2023-04-21T01:24:46;98112.09;;;27.92;55.48
38880;BME280;25887;30.194;-97.880;2023-04-21T01:27:15;98114.13;;;27.64;54.47
38880;BME280;25887;30.194;-97.880;2023-04-21T01:29:45;98123.44;;;27.33;54.77
38880;BME280;25887;30.194;-97.880;2023-04-21T01:32:19;98148.81;;;27.10;54.85
38880;BME280;25887;30.194;-97.880;2023-04-21T01:34:46;98149.56;;;26.87;54.45
38880;BME280;25887;30.194;-97.880;2023-04-21T01:37:15;98154.44;;;26.67;54.44
38880;BME280;25887;30.194;-97.880;2023-04-21T01:39:45;98154.84;;;26.49;54.47
38880;BME280;25887;30.194;-97.880;2023-04-21T01:42:12;98165.84;;;26.28;54.76
38880;BME280;25887;30.194;-97.880;2023-04-21T01:44:39;98155.72;;;26.09;54.64
38880;BME280;25887;30.194;-97.880;2023-04-21T01:47:05;98165.69;;;25.92;54.45
38880;BME280;25887;30.194;-97.880;2023-04-21T01:49:32;98170.16;;;25.77;55.15
38880;BME280;25887;30.194;-97.880;2023-04-21T01:51:58;98169.44;;;25.61;55.23
38880;BME280;25887;30.194;-97.880;2023-04-21T01:54:26;98176.53;;;25.46;55.18
38880;BME280;25887;30.194;-97.880;2023-04-21T01:56:52;98186.13;;;25.33;55.61
38880;BME280;25887;30.194;-97.880;2023-04-21T01:59:18;98163.16;;;25.22;55.71
38880;BME280;25887;30.194;-97.880;2023-04-21T02:01:44;98172.63;;;25.10;55.71
38880;BME280;25887;30.194;-97.880;2023-04-21T02:04:11;98163.44;;;25.03;55.86
38880;BME280;25887;30.194;-97.880;2023-04-21T02:06:37;98151.47;;;24.97;56.31
38880;BME280;25887;30.194;-97.880;2023-04-21T02:09:03;98152.72;;;24.92;56.45
38880;BME280;25887;30.194;-97.880;2023-04-21T02:11:30;98159.09;;;24.88;56.39
38880;BME280;25887;30.194;-97.880;2023-04-21T02:13:56;98151.53;;;24.83;56.21
38880;BME280;25887;30.194;-97.880;2023-04-21T02:16:22;98157.78;;;24.81;56.72
38880;BME280;25887;30.194;-97.880;2023-04-21T02:18:52;98170.19;;;24.79;56.57
38880;BME280;25887;30.194;-97.880;2023-04-21T02:21:22;98188.69;;;24.77;56.79
38880;BME280;25887;30.194;-97.880;2023-04-21T02:23:49;98180.88;;;24.76;56.44
38880;BME280;25887;30.194;-97.880;2023-04-21T02:26:16;98183.53;;;24.76;56.77
38880;BME280;25887;30.194;-97.880;2023-04-21T02:28:42;98180.22;;;24.72;56.92
38880;BME280;25887;30.194;-97.880;2023-04-21T02:31:09;98186.50;;;24.69;56.73
38880;BME280;25887;30.194;-97.880;2023-04-21T02:33:36;98184.03;;;24.66;56.53
38880;BME280;25887;30.194;-97.880;2023-04-21T02:36:03;98177.22;;;24.64;56.89
38880;BME280;25887;30.194;-97.880;2023-04-21T02:38:29;98175.72;;;24.60;57.00
38880;BME280;25887;30.194;-97.880;2023-04-21T02:40:56;98189.97;;;24.56;56.96
38880;BME280;25887;30.194;-97.880;2023-04-21T02:43:23;98175.34;;;24.52;57.28
38880;BME280;25887;30.194;-97.880;2023-04-21T02:45:50;98188.53;;;24.50;57.33
38880;BME280;25887;30.194;-97.880;2023-04-21T02:48:16;98202.69;;;24.48;57.08
38880;BME280;25887;30.194;-97.880;2023-04-21T02:50:48;98211.63;;;24.45;57.17
38880;BME280;25887;30.194;-97.880;2023-04-21T02:53:15;98231.94;;;24.41;57.46
38880;BME280;25887;30.194;-97.880;2023-04-21T02:55:41;98221.44;;;24.41;57.29
38880;BME280;25887;30.194;-97.880;2023-04-21T02:58:08;98214.41;;;24.42;57.57
38880;BME280;25887;30.194;-97.880;2023-04-21T03:00:35;98211.13;;;24.38;57.39
38880;BME280;25887;30.194;-97.880;2023-04-21T03:03:01;98205.97;;;24.37;57.56
38880;BME280;25887;30.194;-97.880;2023-04-21T03:05:28;98210.53;;;24.33;57.68
38880;BME280;25887;30.194;-97.880;2023-04-21T03:07:54;98215.09;;;24.30;57.37
38880;BME280;25887;30.194;-97.880;2023-04-21T03:10:20;98210.13;;;24.25;57.68
38880;BME280;25887;30.194;-97.880;2023-04-21T03:12:47;98219.88;;;24.23;57.90
38880;BME280;25887;30.194;-97.880;2023-04-21T03:15:13;98222.66;;;24.20;57.65
38880;BME280;25887;30.194;-97.880;2023-04-21T03:17:40;98203.63;;;24.16;58.12
38880;BME280;25887;30.194;-97.880;2023-04-21T03:20:07;98225.66;;;24.14;57.73
38880;BME280;25887;30.194;-97.880;2023-04-21T03:22:39;98245.81;;;24.13;58.00
38880;BME280;25887;30.194;-97.880;2023-04-21T03:25:06;98254.63;;;24.12;58.05
38880;BME280;25887;30.194;-97.880;2023-04-21T03:27:37;98258.00;;;24.14;58.04
38880;BME280;25887;30.194;-97.880;2023-04-21T03:30:04;98260.72;;;24.13;58.04
38880;BME280;25887;30.194;-97.880;2023-04-21T03:32:31;98286.97;;;24.13;57.92
38880;BME280;25887;30.194;-97.880;2023-04-21T03:34:57;98314.91;;;24.14;58.25
38880;BME280;25887;30.194;-97.880;2023-04-21T03:37:23;98333.28;;;24.14;58.08
38880;BME280;25887;30.194;-97.880;2023-04-21T03:39:50;98349.03;;;24.14;58.39
38880;BME280;25887;30.194;-97.880;2023-04-21T03:42:16;98356.91;;;24.14;58.12
38880;BME280;25887;30.194;-97.880;2023-04-21T03:44:42;98364.00;;;24.12;58.02
38880;BME280;25887;30.194;-97.880;2023-04-21T03:47:08;98340.72;;;24.06;58.67
38880;BME280;25887;30.194;-97.880;2023-04-21T03:49:34;98302.63;;;23.99;58.44
38880;BME280;25887;30.194;-97.880;2023-04-21T03:52:01;98264.53;;;23.92;58.61
38880;BME280;25887;30.194;-97.880;2023-04-21T03:54:27;98245.75;;;23.83;58.68
38880;BME280;25887;30.194;-97.880;2023-04-21T03:56:53;98226.97;;;23.75;58.96
38880;BME280;25887;30.194;-97.880;2023-04-21T03:59:19;98222.16;;;23.68;59.21
38880;BME280;25887;30.194;-97.880;2023-04-21T04:01:45;98219.22;;;23.56;59.50
38880;BME280;25887;30.194;-97.880;2023-04-21T04:04:11;98210.09;;;23.48;59.41
38880;BME280;25887;30.194;-97.880;2023-04-21T04:06:38;98190.66;;;23.36;60.14
38880;BME280;25887;30.194;-97.880;2023-04-21T04:09:04;98185.94;;;23.27;60.15
38880;BME280;25887;30.194;-97.880;2023-04-21T04:11:31;98196.81;;;23.19;60.39
38880;BME280;25887;30.194;-97.880;2023-04-21T04:13:57;98184.19;;;23.10;60.83
38880;BME280;25887;30.194;-97.880;2023-04-21T04:16:24;98146.00;;;23.06;60.80
38880;BME280;25887;30.194;-97.880;2023-04-21T04:18:50;98109.81;;;22.97;61.17
38880;BME280;25887;30.194;-97.880;2023-04-21T04:21:16;98060.59;;;22.86;61.07
38880;BME280;25887;30.194;-97.880;2023-04-21T04:23:42;98035.81;;;22.76;61.74
38880;BME280;25887;30.194;-97.880;2023-04-21T04:26:09;98062.44;;;22.68;61.82
38880;BME280;25887;30.194;-97.880;2023-04-21T04:28:37;98027.88;;;22.62;61.99
38880;BME280;25887;30.194;-97.880;2023-04-21T04:31:03;98001.16;;;22.55;62.47
38880;BME280;25887;30.194;-97.880;2023-04-21T04:33:29;98003.38;;;22.47;63.01
38880;BME280;25887;30.194;-97.880;2023-04-21T04:35:55;98054.34;;;22.40;62.90
38880;BME280;25887;30.194;-97.880;2023-04-21T04:38:22;98122.50;;;22.38;62.75
38880;BME280;25887;30.194;-97.880;2023-04-21T04:40:53;98197.34;;;22.42;62.83
38880;BME280;25887;30.194;-97.880;2023-04-21T04:43:20;98212.03;;;22.45;62.58
38880;BME280;25887;30.194;-97.880;2023-04-21T04:45:46;98211.88;;;22.48;62.72
38880;BME280;25887;30.194;-97.880;2023-04-21T04:48:13;98223.81;;;22.53;62.77
38880;BME280;25887;30.194;-97.880;2023-04-21T04:50:39;98255.06;;;22.57;62.71
38880;BME280;25887;30.194;-97.880;2023-04-21T04:53:05;98265.31;;;22.61;62.73
38880;BME280;25887;30.194;-97.880;2023-04-21T04:55:32;98270.25;;;22.67;62.53
38880;BME280;25887;30.194;-97.880;2023-04-21T04:58:26;98248.06;;;22.74;62.46
38880;BME280;25887;30.194;-97.880;2023-04-21T05:00:53;98200.00;;;22.75;62.16
38880;BME280;25887;30.194;-97.880;2023-04-21T05:03:19;98180.72;;;22.76;62.32
38880;BME280;25887;30.194;-97.880;2023-04-21T05:05:45;98193.81;;;22.76;62.57
38880;BME280;25887;30.194;-97.880;2023-04-21T05:08:11;98205.91;;;22.79;62.15
38880;BME280;25887;30.194;-97.880;2023-04-21T05:10:37;98215.44;;;22.80;62.67
38880;BME280;25887;30.194;-97.880;2023-04-21T05:13:03;98224.19;;;22.80;62.68
38880;BME280;25887;30.194;-97.880;2023-04-21T05:15:29;98215.38;;;22.82;62.63
38880;BME280;25887;30.194;-97.880;2023-04-21T05:17:56;98192.81;;;22.79;62.47
38880;BME280;25887;30.194;-97.880;2023-04-21T05:20:22;98190.25;;;22.77;62.58
38880;BME280;25887;30.194;-97.880;2023-04-21T05:22:48;98237.31;;;22.79;62.83
38880;BME280;25887;30.194;-97.880;2023-04-21T05:25:14;98270.44;;;22.80;62.46
38880;BME280;25887;30.194;-97.880;2023-04-21T05:27:41;98270.41;;;22.82;62.55
38880;BME280;25887;30.194;-97.880;2023-04-21T05:30:08;98276.41;;;22.84;62.50
38880;BME280;25887;30.194;-97.880;2023-04-21T05:32:35;98310.44;;;22.84;62.73
38880;BME280;25887;30.194;-97.880;2023-04-21T05:35:01;98380.19;;;22.86;62.69
38880;BME280;25887;30.194;-97.880;2023-04-21T05:37:30;98375.69;;;22.90;62.67
38880;BME280;25887;30.194;-97.880;2023-04-21T05:39:56;98344.06;;;22.93;62.47
38880;BME280;25887;30.194;-97.880;2023-04-21T05:42:22;98338.69;;;22.96;62.57
38880;BME280;25887;30.194;-97.880;2023-04-21T05:44:48;98291.53;;;22.96;62.67
38880;BME280;25887;30.194;-97.880;2023-04-21T05:47:14;98258.22;;;22.98;62.47
38880;BME280;25887;30.194;-97.880;2023-04-21T05:49:40;98239.81;;;22.99;62.65
38880;BME280;25887;30.194;-97.880;2023-04-21T05:52:08;98270.41;;;22.99;62.27
38880;BME280;25887;30.194;-97.880;2023-04-21T05:54:35;98261.44;;;23.03;62.76
38880;BME280;25887;30.194;-97.880;2023-04-21T05:57:01;98242.19;;;23.04;62.72
38880;BME280;25887;30.194;-97.880;2023-04-21T05:59:27;98250.94;;;23.03;62.36
38880;BME280;25887;30.194;-97.880;2023-04-21T06:01:53;98221.22;;;23.04;62.16
38880;BME280;25887;30.194;-97.880;2023-04-21T06:04:19;98155.88;;;23.01;62.40
38880;BME280;25887;30.194;-97.880;2023-04-21T06:06:45;98149.03;;;22.98;62.56
38880;BME280;25887;30.194;-97.880;2023-04-21T06:09:12;98173.44;;;22.99;62.84
38880;BME280;25887;30.194;-97.880;2023-04-21T06:11:43;98162.97;;;22.99;62.42
38880;BME280;25887;30.194;-97.880;2023-04-21T06:14:10;98137.72;;;22.98;62.85
38880;BME280;25887;30.194;-97.880;2023-04-21T06:16:36;98078.53;;;22.94;62.93
38880;BME280;25887;30.194;-97.880;2023-04-21T06:19:02;98049.13;;;22.89;62.86
38880;BME280;25887;30.194;-97.880;2023-04-21T06:21:28;98029.22;;;22.85;62.94
38880;BME280;25887;30.194;-97.880;2023-04-21T06:23:55;98040.13;;;22.77;63.51
38880;BME280;25887;30.194;-97.880;2023-04-21T06:26:21;98108.22;;;22.77;62.92
38880;BME280;25887;30.194;-97.880;2023-04-21T06:28:47;98117.19;;;22.73;63.37
38880;BME280;25887;30.194;-97.880;2023-04-21T06:31:13;98119.88;;;22.71;63.30
38880;BME280;25887;30.194;-97.880;2023-04-21T06:33:40;98125.28;;;22.68;63.29
38880;BME280;25887;30.194;-97.880;2023-04-21T06:36:06;98106.19;;;22.66;63.35
38880;BME280;25887;30.194;-97.880;2023-04-21T06:38:33;98097.56;;;22.64;63.43
38880;BME280;25887;30.194;-97.880;2023-04-21T06:40:59;98108.03;;;22.64;63.51
38880;BME280;25887;30.194;-97.880;2023-04-21T06:43:25;98128.13;;;22.64;63.38
38880;BME280;25887;30.194;-97.880;2023-04-21T06:45:51;98148.09;;;22.66;63.20
38880;BME280;25887;30.194;-97.880;2023-04-21T06:48:17;98153.06;;;22.71;63.34
38880;BME280;25887;30.194;-97.880;2023-04-21T06:50:43;98152.13;;;22.72;63.29
38880;BME280;25887;30.194;-97.880;2023-04-21T06:53:11;98161.63;;;22.74;63.48
38880;BME280;25887;30.194;-97.880;2023-04-21T06:55:37;98187.66;;;22.77;63.14
38880;BME280;25887;30.194;-97.880;2023-04-21T06:58:03;98190.13;;;22.80;63.21
38880;BME280;25887;30.194;-97.880;2023-04-21T07:00:29;98195.28;;;22.82;63.36
38880;BME280;25887;30.194;-97.880;2023-04-21T07:02:55;98158.53;;;22.84;63.23
38880;BME280;25887;30.194;-97.880;2023-04-21T07:05:22;98122.78;;;22.83;63.48
38880;BME280;25887;30.194;-97.880;2023-04-21T07:07:48;98115.84;;;22.82;63.36
38880;BME280;25887;30.194;-97.880;2023-04-21T07:10:14;98098.44;;;22.80;63.54
38880;BME280;25887;30.194;-97.880;2023-04-21T07:12:44;98096.59;;;22.83;63.47
38880;BME280;25887;30.194;-97.880;2023-04-21T07:15:11;98096.59;;;22.83;63.29
38880;BME280;25887;30.194;-97.880;2023-04-21T07:17:38;98088.81;;;22.81;63.52
38880;BME280;25887;30.194;-97.880;2023-04-21T07:20:04;98087.03;;;22.82;63.67
38880;BME280;25887;30.194;-97.880;2023-04-21T07:22:30;98074.94;;;22.79;63.66
38880;BME280;25887;30.194;-97.880;2023-04-21T07:24:56;98087.09;;;22.80;63.67
38880;BME280;25887;30.194;-97.880;2023-04-21T07:27:22;98084.56;;;22.78;63.45
38880;BME280;25887;30.194;-97.880;2023-04-21T07:29:49;98086.34;;;22.78;63.60
38880;BME280;25887;30.194;-97.880;2023-04-21T07:32:15;98089.72;;;22.80;63.39
38880;BME280;25887;30.194;-97.880;2023-04-21T07:34:41;98081.00;;;22.79;63.85
38880;BME280;25887;30.194;-97.880;2023-04-21T07:37:08;98090.66;;;22.79;63.76
38880;BME280;25887;30.194;-97.880;2023-04-21T07:39:34;98080.13;;;22.80;63.44
38880;BME280;25887;30.194;-97.880;2023-04-21T07:42:00;98082.72;;;22.80;63.43
38880;BME280;25887;30.194;-97.880;2023-04-21T07:44:26;98075.63;;;22.83;63.59
38880;BME280;25887;30.194;-97.880;2023-04-21T07:46:54;98059.06;;;22.82;63.47
38880;BME280;25887;30.194;-97.880;2023-04-21T07:49:21;98064.22;;;22.84;63.41
38880;BME280;25887;30.194;-97.880;2023-04-21T07:51:47;98066.84;;;22.84;63.36
38880;BME280;25887;30.194;-97.880;2023-04-21T07:54:14;98061.59;;;22.84;63.82
38880;BME280;25887;30.194;-97.880;2023-04-21T07:56:40;98056.34;;;22.84;63.27
38880;BME280;25887;30.194;-97.880;2023-04-21T07:59:06;98052.91;;;22.83;63.34
38880;BME280;25887;30.194;-97.880;2023-04-21T08:01:32;98066.94;;;22.82;63.74
38880;BME280;25887;30.194;-97.880;2023-04-21T08:03:58;98057.28;;;22.83;63.30
38880;BME280;25887;30.194;-97.880;2023-04-21T08:06:24;98053.00;;;22.82;63.54
38880;BME280;25887;30.194;-97.880;2023-04-21T08:08:50;98055.75;;;22.78;63.72
38880;BME280;25887;30.194;-97.880;2023-04-21T08:11:17;98053.22;;;22.77;63.78
38880;BME280;25887;30.194;-97.880;2023-04-21T08:13:43;98060.41;;;22.73;63.82
38880;BME280;25887;30.194;-97.880;2023-04-21T08:16:09;98063.97;;;22.72;63.81
38880;BME280;25887;30.194;-97.880;2023-04-21T08:18:35;98073.66;;;22.70;63.40
38880;BME280;25887;30.194;-97.880;2023-04-21T08:21:01;98078.06;;;22.70;63.67
38880;BME280;25887;30.194;-97.880;2023-04-21T08:23:28;98065.13;;;22.67;63.71
38880;BME280;25887;30.194;-97.880;2023-04-21T08:25:56;98066.06;;;22.66;63.62
38880;BME280;25887;30.194;-97.880;2023-04-21T08:28:23;98054.81;;;22.64;63.62
38880;BME280;25887;30.194;-97.880;2023-04-21T08:30:56;98038.34;;;22.62;63.79
38880;BME280;25887;30.194;-97.880;2023-04-21T08:33:22;98044.50;;;22.61;63.45
38880;BME280;25887;30.194;-97.880;2023-04-21T08:35:48;98048.06;;;22.60;63.96
38880;BME280;25887;30.194;-97.880;2023-04-21T08:38:14;98056.00;;;22.58;63.75
38880;BME280;25887;30.194;-97.880;2023-04-21T08:40:41;98057.84;;;22.56;63.62
38880;BME280;25887;30.194;-97.880;2023-04-21T08:43:07;98052.59;;;22.56;63.90
38880;BME280;25887;30.194;-97.880;2023-04-21T08:45:34;98044.84;;;22.55;64.10
38880;BME280;25887;30.194;-97.880;2023-04-21T08:48:01;98041.56;;;22.51;64.05
38880;BME280;25887;30.194;-97.880;2023-04-21T08:50:31;98039.88;;;22.50;64.04
38880;BME280;25887;30.194;-97.880;2023-04-21T08:52:57;98034.69;;;22.48;64.17
38880;BME280;25887;30.194;-97.880;2023-04-21T08:55:29;98023.38;;;22.48;63.99
38880;BME280;25887;30.194;-97.880;2023-04-21T08:57:56;98025.16;;;22.47;64.10
38880;BME280;25887;30.194;-97.880;2023-04-21T09:00:22;98023.38;;;22.48;63.81
38880;BME280;25887;30.194;-97.880;2023-04-21T09:02:54;98013.84;;;22.47;63.73
38880;BME280;25887;30.194;-97.880;2023-04-21T09:05:27;98011.22;;;22.47;63.94
38880;BME280;25887;30.194;-97.880;2023-04-21T09:08:07;98013.75;;;22.48;63.68
38880;BME280;25887;30.194;-97.880;2023-04-21T09:10:48;98008.59;;;22.47;63.92
38880;BME280;25887;30.194;-97.880;2023-04-21T09:13:15;98009.53;;;22.46;63.85
38880;BME280;25887;30.194;-97.880;2023-04-21T09:15:48;98005.97;;;22.47;63.62
38880;BME280;25887;30.194;-97.880;2023-04-21T09:18:20;98020.84;;;22.46;63.77
38880;BME280;25887;30.194;-97.880;2023-04-21T09:21:30;98016.63;;;22.44;63.89
38880;BME280;25887;30.194;-97.880;2023-04-21T09:23:48;98011.41;;;22.44;63.52
38880;BME280;25887;30.194;-97.880;2023-04-21T09:26:17;98019.34;;;22.42;63.88
38880;BME280;25887;30.194;-97.880;2023-04-21T09:28:45;98025.56;;;22.40;63.95
38880;BME280;25887;30.194;-97.880;2023-04-21T09:31:18;98027.34;;;22.39;63.98
38880;BME280;25887;30.194;-97.880;2023-04-21T09:33:49;98030.78;;;22.40;63.76
38880;BME280;25887;30.194;-97.880;2023-04-21T09:36:23;98043.81;;;22.41;63.78
38880;BME280;25887;30.194;-97.880;2023-04-21T09:41:22;98049.13;;;22.40;63.96
38880;BME280;25887;30.194;-97.880;2023-04-21T09:43:48;98044.81;;;22.39;63.90
38880;BME280;25887;30.194;-97.880;2023-04-21T09:46:15;98043.97;;;22.38;63.99
38880;BME280;25887;30.194;-97.880;2023-04-21T09:48:46;98038.13;;;22.33;63.65
38880;BME280;25887;30.194;-97.880;2023-04-21T09:51:14;98034.75;;;22.31;63.93
38880;BME280;25887;30.194;-97.880;2023-04-21T09:53:41;98037.44;;;22.30;63.75
38880;BME280;25887;30.194;-97.880;2023-04-21T09:56:13;98038.38;;;22.29;63.61
38880;BME280;25887;30.194;-97.880;2023-04-21T09:58:46;98040.25;;;22.27;63.86
38880;BME280;25887;30.194;-97.880;2023-04-21T10:01:14;98035.84;;;22.27;63.73
38880;BME280;25887;30.194;-97.880;2023-04-21T10:03:42;98027.22;;;22.25;63.81
38880;BME280;25887;30.194;-97.880;2023-04-21T10:06:11;98041.16;;;22.25;64.19
38880;BME280;25887;30.194;-97.880;2023-04-21T10:08:38;98031.69;;;22.23;63.79
38880;BME280;25887;30.194;-97.880;2023-04-21T10:11:05;98039.47;;;22.24;63.77
38880;BME280;25887;30.194;-97.880;2023-04-21T10:13:32;98039.47;;;22.24;64.25
38880;BME280;25887;30.194;-97.880;2023-04-21T10:16:09;98045.53;;;22.25;63.94
38880;BME280;25887;30.194;-97.880;2023-04-21T10:18:37;98040.47;;;22.22;63.89
38880;BME280;25887;30.194;-97.880;2023-04-21T10:21:08;98051.03;;;22.20;64.16
38880;BME280;25887;30.194;-97.880;2023-04-21T10:23:43;98058.13;;;22.18;64.10
38880;BME280;25887;30.194;-97.880;2023-04-21T10:26:12;98058.25;;;22.15;63.93
38880;BME280;25887;30.194;-97.880;2023-04-21T10:39:28;98086.38;;;22.12;64.10
38880;BME280;25887;30.194;-97.880;2023-04-21T10:41:55;98087.44;;;22.08;64.23
38880;BME280;25887;30.194;-97.880;2023-04-21T10:44:27;98096.91;;;22.10;64.04
38880;BME280;25887;30.194;-97.880;2023-04-21T10:46:54;98091.69;;;22.10;64.26
38880;BME280;25887;30.194;-97.880;2023-04-21T10:49:25;98086.47;;;22.10;64.13
38880;BME280;25887;30.194;-97.880;2023-04-21T10:54:42;98104.69;;;22.12;64.20
38880;BME280;25887;30.194;-97.880;2023-04-21T10:57:17;98101.38;;;22.08;64.47
38880;BME280;25887;30.194;-97.880;2023-04-21T10:59:45;98101.41;;;22.07;64.10
38880;BME280;25887;30.194;-97.880;2023-04-21T11:02:12;98105.97;;;22.03;63.98
38880;BME280;25887;30.194;-97.880;2023-04-21T11:04:40;98119.09;;;22.02;64.17
38880;BME280;25887;30.194;-97.880;2023-04-21T11:07:14;98119.94;;;22.02;64.26
38880;BME280;25887;30.194;-97.880;2023-04-21T11:09:42;98109.56;;;22.01;64.20
38880;BME280;25887;30.194;-97.880;2023-04-21T11:12:10;98113.19;;;21.98;64.19
38880;BME280;25887;30.194;-97.880;2023-04-21T11:14:42;98126.19;;;22.00;64.10
38880;BME280;25887;30.194;-97.880;2023-04-21T11:17:13;98134.03;;;22.00;64.53
38880;BME280;25887;30.194;-97.880;2023-04-21T11:19:40;98145.34;;;22.00;64.27
38880;BME280;25887;30.194;-97.880;2023-04-21T11:22:06;98130.56;;;21.99;64.54
38880;BME280;25887;30.194;-97.880;2023-04-21T11:24:33;98139.19;;;22.01;64.41
38880;BME280;25887;30.194;-97.880;2023-04-21T11:26:59;98138.34;;;22.01;64.35
38880;BME280;25887;30.194;-97.880;2023-04-21T11:29:26;98151.34;;;22.02;64.08
38880;BME280;25887;30.194;-97.880;2023-04-21T11:31:56;98149.66;;;22.01;64.23
38880;BME280;25887;30.194;-97.880;2023-04-21T11:34:25;98143.66;;;21.99;64.16
38880;BME280;25887;30.194;-97.880;2023-04-21T11:36:52;98151.50;;;21.99;64.17
38880;BME280;25887;30.194;-97.880;2023-04-21T11:39:20;98150.75;;;21.97;64.22
38880;BME280;25887;30.194;-97.880;2023-04-21T11:41:50;98154.38;;;21.94;64.04
38880;BME280;25887;30.194;-97.880;2023-04-21T11:44:46;98160.44;;;21.95;64.00
38880;BME280;25887;30.194;-97.880;2023-04-21T11:47:19;98167.50;;;21.93;63.96
38880;BME280;25887;30.194;-97.880;2023-04-21T11:49:56;98175.50;;;21.90;64.14
38880;BME280;25887;30.194;-97.880;2023-04-21T11:52:30;98179.13;;;21.87;64.06
38880;BME280;25887;30.194;-97.880;2023-04-21T11:55:14;98177.41;;;21.86;64.15
38880;BME280;25887;30.194;-97.880;2023-04-21T11:57:43;98184.56;;;21.83;63.98
38880;BME280;25887;30.194;-97.880;2023-04-21T12:00:11;98195.13;;;21.81;64.16
38880;BME280;25887;30.194;-97.880;2023-04-21T12:02:42;98214.25;;;21.82;64.19
38880;BME280;25887;30.194;-97.880;2023-04-21T12:05:10;98212.66;;;21.79;64.23
38880;BME280;25887;30.194;-97.880;2023-04-21T12:07:37;98217.16;;;21.76;64.20
38880;BME280;25887;30.194;-97.880;2023-04-21T12:10:18;98207.63;;;21.75;63.85
38880;BME280;25887;30.194;-97.880;2023-04-21T12:12:47;98215.63;;;21.72;63.79
38880;BME280;25887;30.194;-97.880;2023-04-21T12:15:20;98232.22;;;21.70;64.18
38880;BME280;25887;30.194;-97.880;2023-04-21T12:17:52;98250.59;;;21.69;64.10
38880;BME280;25887;30.194;-97.880;2023-04-21T12:20:23;98257.59;;;21.68;63.88
38880;BME280;25887;30.194;-97.880;2023-04-21T12:22:51;98274.22;;;21.67;64.06
38880;BME280;25887;30.194;-97.880;2023-04-21T12:25:18;98291.66;;;21.67;64.08
38880;BME280;25887;30.194;-97.880;2023-04-21T12:27:49;98286.44;;;21.67;64.33
38880;BME280;25887;30.194;-97.880;2023-04-21T12:30:19;98282.06;;;21.67;64.09
38880;BME280;25887;30.194;-97.880;2023-04-21T12:32:45;98282.97;;;21.66;64.09
38880;BME280;25887;30.194;-97.880;2023-04-21T12:35:12;98289.91;;;21.67;64.35
38880;BME280;25887;30.194;-97.880;2023-04-21T12:37:39;98287.28;;;21.67;64.11
38880;BME280;25887;30.194;-97.880;2023-04-21T12:40:05;98286.28;;;21.70;64.32
38880;BME280;25887;30.194;-97.880;2023-04-21T12:42:32;98289.69;;;21.72;64.21
38880;BME280;25887;30.194;-97.880;2023-04-21T12:44:58;98290.53;;;21.73;64.27
38880;BME280;25887;30.194;-97.880;2023-04-21T12:47:26;98294.84;;;21.74;64.37
38880;BME280;25887;30.194;-97.880;2023-04-21T12:49:52;98301.69;;;21.76;64.48
38880;BME280;25887;30.194;-97.880;2023-04-21T12:52:18;98304.22;;;21.78;64.32
38880;BME280;25887;30.194;-97.880;2023-04-21T12:54:44;98311.09;;;21.80;64.61
38880;BME280;25887;30.194;-97.880;2023-04-21T12:57:11;98330.09;;;21.84;64.13
38880;BME280;25887;30.194;-97.880;2023-04-21T12:59:38;98338.72;;;21.86;64.74